sensor_id;sensor_type;location;lat;lon;timestamp;P1;durP1;ratioP1;P2;durP2;ratioP2
62153;SDS011;48140;45.486;9.226;2022-07-21T01:03:03;9.00;;;3.80;;
62153;SDS011;48140;45.486;9.226;2022-07-21T01:05:29;5.57;;;3.53;;
62153;SDS011;48140;45.486;9.226;2022-07-21T01:07:55;6.47;;;3.33;;
62153;SDS011;48140;45.486;9.226;2022-07-21T01:10:22;5.30;;;3.25;;
62153;SDS011;48140;45.486;9.226;2022-07-21T01:12:49;4.80;;;3.40;;
62153;SDS011;48140;45.486;9.226;2022-07-21T01:15:16;5.97;;;3.45;;
62153;SDS011;48140;45.486;9.226;2022-07-21T01:17:43;5.75;;;3.80;;
62153;SDS011;48140;45.486;9.226;2022-07-21T01:20:11;5.50;;;3.33;;
62153;SDS011;48140;45.486;9.226;2022-07-21T01:22:43;7.22;;;3.58;;
62153;SDS011;48140;45.486;9.226;2022-07-21T01:25:11;8.13;;;3.13;;
62153;SDS011;48140;45.486;9.226;2022-07-21T01:27:37;6.78;;;3.25;;
62153;SDS011;48140;45.486;9.226;2022-07-21T01:30:04;5.28;;;2.95;;
62153;SDS011;48140;45.486;9.226;2022-07-21T01:32:33;6.90;;;2.83;;
62153;SDS011;48140;45.486;9.226;2022-07-21T01:34:59;6.43;;;3.30;;
62153;SDS011;48140;45.486;9.226;2022-07-21T01:37:27;5.32;;;3.00;;
62153;SDS011;48140;45.486;9.226;2022-07-21T01:39:55;6.00;;;3.20;;
62153;SDS011;48140;45.486;9.226;2022-07-21T01:42:39;10.57;;;3.22;;
62153;SDS011;48140;45.486;9.226;2022-07-21T01:45:05;4.68;;;3.00;;
62153;SDS011;48140;45.486;9.226;2022-07-21T01:47:31;5.05;;;3.00;;
62153;SDS011;48140;45.486;9.226;2022-07-21T01:49:57;6.60;;;3.25;;
62153;SDS011;48140;45.486;9.226;2022-07-21T01:52:23;5.55;;;3.40;;
62153;SDS011;48140;45.486;9.226;2022-07-21T01:54:49;7.25;;;3.50;;
62153;SDS011;48140;45.486;9.226;2022-07-21T01:57:14;8.77;;;3.25;;
62153;SDS011;48140;45.486;9.226;2022-07-21T01:59:40;5.85;;;2.95;;
62153;SDS011;48140;45.486;9.226;2022-07-21T02:02:06;4.90;;;3.08;;
62153;SDS011;48140;45.486;9.226;2022-07-21T02:04:32;4.28;;;2.85;;
62153;SDS011;48140;45.486;9.226;2022-07-21T02:06:59;7.05;;;3.28;;
62153;SDS011;48140;45.486;9.226;2022-07-21T02:09:26;6.35;;;3.00;;
62153;SDS011;48140;45.486;9.226;2022-07-21T02:11:51;4.88;;;3.05;;
62153;SDS011;48140;45.486;9.226;2022-07-21T02:14:17;5.40;;;3.35;;
62153;SDS011;48140;45.486;9.226;2022-07-21T02:16:43;5.57;;;2.90;;
62153;SDS011;48140;45.486;9.226;2022-07-21T02:19:08;10.68;;;3.10;;
62153;SDS011;48140;45.486;9.226;2022-07-21T02:21:34;5.65;;;3.05;;
62153;SDS011;48140;45.486;9.226;2022-07-21T02:24:00;5.28;;;3.10;;
62153;SDS011;48140;45.486;9.226;2022-07-21T02:26:25;6.22;;;3.10;;
62153;SDS011;48140;45.486;9.226;2022-07-21T02:28:51;9.48;;;3.30;;
62153;SDS011;48140;45.486;9.226;2022-07-21T02:31:17;4.63;;;2.92;;
62153;SDS011;48140;45.486;9.226;2022-07-21T02:33:43;8.10;;;2.90;;
62153;SDS011;48140;45.486;9.226;2022-07-21T02:36:08;5.47;;;3.08;;
62153;SDS011;48140;45.486;9.226;2022-07-21T02:38:34;5.15;;;2.95;;
62153;SDS011;48140;45.486;9.226;2022-07-21T02:41:00;7.05;;;2.97;;
62153;SDS011;48140;45.486;9.226;2022-07-21T02:43:25;4.43;;;2.90;;
62153;SDS011;48140;45.486;9.226;2022-07-21T02:45:51;5.20;;;2.97;;
62153;SDS011;48140;45.486;9.226;2022-07-21T02:48:17;7.18;;;3.00;;
62153;SDS011;48140;45.486;9.226;2022-07-21T02:50:43;6.75;;;3.50;;
62153;SDS011;48140;45.486;9.226;2022-07-21T02:53:13;6.32;;;3.20;;
62153;SDS011;48140;45.486;9.226;2022-07-21T02:55:43;7.10;;;2.90;;
62153;SDS011;48140;45.486;9.226;2022-07-21T02:58:10;5.32;;;2.92;;
62153;SDS011;48140;45.486;9.226;2022-07-21T03:00:49;4.20;;;2.80;;
62153;SDS011;48140;45.486;9.226;2022-07-21T03:03:27;7.40;;;3.20;;
62153;SDS011;48140;45.486;9.226;2022-07-21T03:05:54;5.80;;;3.00;;
62153;SDS011;48140;45.486;9.226;2022-07-21T03:08:21;5.15;;;2.80;;
62153;SDS011;48140;45.486;9.226;2022-07-21T03:10:47;5.18;;;2.88;;
62153;SDS011;48140;45.486;9.226;2022-07-21T03:13:13;7.68;;;3.03;;
62153;SDS011;48140;45.486;9.226;2022-07-21T03:15:39;5.10;;;3.25;;
62153;SDS011;48140;45.486;9.226;2022-07-21T03:18:05;6.90;;;3.65;;
62153;SDS011;48140;45.486;9.226;2022-07-21T03:20:32;5.38;;;2.90;;
62153;SDS011;48140;45.486;9.226;2022-07-21T03:23:01;7.30;;;3.03;;
62153;SDS011;48140;45.486;9.226;2022-07-21T03:25:27;7.03;;;2.97;;
62153;SDS011;48140;45.486;9.226;2022-07-21T03:27:56;5.65;;;3.13;;
62153;SDS011;48140;45.486;9.226;2022-07-21T03:30:22;8.63;;;3.20;;
62153;SDS011;48140;45.486;9.226;2022-07-21T03:32:48;7.95;;;3.00;;
62153;SDS011;48140;45.486;9.226;2022-07-21T03:35:15;5.22;;;3.00;;
62153;SDS011;48140;45.486;9.226;2022-07-21T03:37:42;3.97;;;2.83;;
62153;SDS011;48140;45.486;9.226;2022-07-21T03:40:14;4.80;;;3.00;;
62153;SDS011;48140;45.486;9.226;2022-07-21T03:42:41;4.93;;;3.05;;
62153;SDS011;48140;45.486;9.226;2022-07-21T03:45:07;5.90;;;3.13;;
62153;SDS011;48140;45.486;9.226;2022-07-21T03:47:33;6.63;;;3.05;;
62153;SDS011;48140;45.486;9.226;2022-07-21T03:49:59;5.90;;;2.85;;
62153;SDS011;48140;45.486;9.226;2022-07-21T03:52:25;7.20;;;2.92;;
62153;SDS011;48140;45.486;9.226;2022-07-21T03:54:51;5.53;;;3.35;;
62153;SDS011;48140;45.486;9.226;2022-07-21T03:57:33;5.65;;;2.92;;
62153;SDS011;48140;45.486;9.226;2022-07-21T04:00:04;6.03;;;3.25;;
62153;SDS011;48140;45.486;9.226;2022-07-21T04:02:31;7.38;;;2.92;;
62153;SDS011;48140;45.486;9.226;2022-07-21T04:04:56;5.38;;;3.28;;
62153;SDS011;48140;45.486;9.226;2022-07-21T04:07:22;6.13;;;3.15;;
62153;SDS011;48140;45.486;9.226;2022-07-21T04:09:48;6.75;;;3.20;;
62153;SDS011;48140;45.486;9.226;2022-07-21T04:12:13;6.97;;;3.13;;
62153;SDS011;48140;45.486;9.226;2022-07-21T04:14:39;4.18;;;2.85;;
62153;SDS011;48140;45.486;9.226;2022-07-21T04:17:04;5.65;;;3.25;;
62153;SDS011;48140;45.486;9.226;2022-07-21T04:19:30;8.57;;;3.45;;
62153;SDS011;48140;45.486;9.226;2022-07-21T04:21:58;5.10;;;3.63;;
62153;SDS011;48140;45.486;9.226;2022-07-21T04:24:23;6.68;;;2.85;;
62153;SDS011;48140;45.486;9.226;2022-07-21T04:26:49;5.38;;;3.15;;
62153;SDS011;48140;45.486;9.226;2022-07-21T04:29:15;7.93;;;3.13;;
62153;SDS011;48140;45.486;9.226;2022-07-21T04:31:40;5.93;;;3.10;;
62153;SDS011;48140;45.486;9.226;2022-07-21T04:34:06;8.38;;;2.97;;
62153;SDS011;48140;45.486;9.226;2022-07-21T04:36:31;6.25;;;2.80;;
62153;SDS011;48140;45.486;9.226;2022-07-21T04:38:57;6.50;;;3.08;;
62153;SDS011;48140;45.486;9.226;2022-07-21T04:41:23;4.70;;;2.83;;
62153;SDS011;48140;45.486;9.226;2022-07-21T04:43:48;8.23;;;3.53;;
62153;SDS011;48140;45.486;9.226;2022-07-21T04:46:14;5.28;;;3.00;;
62153;SDS011;48140;45.486;9.226;2022-07-21T04:48:40;5.95;;;3.10;;
62153;SDS011;48140;45.486;9.226;2022-07-21T04:51:06;4.85;;;2.90;;
62153;SDS011;48140;45.486;9.226;2022-07-21T04:53:32;5.15;;;2.58;;
62153;SDS011;48140;45.486;9.226;2022-07-21T04:55:57;5.95;;;2.95;;
62153;SDS011;48140;45.486;9.226;2022-07-21T04:58:23;5.15;;;2.83;;
62153;SDS011;48140;45.486;9.226;2022-07-21T05:00:48;5.30;;;2.80;;
62153;SDS011;48140;45.486;9.226;2022-07-21T05:03:14;7.80;;;3.13;;
62153;SDS011;48140;45.486;9.226;2022-07-21T05:05:40;14.07;;;3.50;;
62153;SDS011;48140;45.486;9.226;2022-07-21T05:08:06;7.55;;;3.17;;
62153;SDS011;48140;45.486;9.226;2022-07-21T05:10:31;8.85;;;3.38;;
62153;SDS011;48140;45.486;9.226;2022-07-21T05:12:57;5.80;;;2.92;;
62153;SDS011;48140;45.486;9.226;2022-07-21T05:15:23;5.65;;;2.92;;
62153;SDS011;48140;45.486;9.226;2022-07-21T05:17:48;8.35;;;3.10;;
62153;SDS011;48140;45.486;9.226;2022-07-21T05:20:14;7.35;;;3.38;;
62153;SDS011;48140;45.486;9.226;2022-07-21T05:22:40;15.05;;;3.28;;
62153;SDS011;48140;45.486;9.226;2022-07-21T05:25:06;8.10;;;2.90;;
62153;SDS011;48140;45.486;9.226;2022-07-21T05:27:32;5.10;;;3.33;;
62153;SDS011;48140;45.486;9.226;2022-07-21T05:29:58;12.00;;;3.25;;
62153;SDS011;48140;45.486;9.226;2022-07-21T05:32:24;6.45;;;3.30;;
62153;SDS011;48140;45.486;9.226;2022-07-21T05:34:50;5.75;;;2.90;;
62153;SDS011;48140;45.486;9.226;2022-07-21T05:37:15;5.78;;;2.90;;
62153;SDS011;48140;45.486;9.226;2022-07-21T05:39:41;5.60;;;3.10;;
62153;SDS011;48140;45.486;9.226;2022-07-21T05:42:07;4.97;;;3.10;;
62153;SDS011;48140;45.486;9.226;2022-07-21T05:44:32;6.60;;;3.40;;
62153;SDS011;48140;45.486;9.226;2022-07-21T05:46:58;7.35;;;3.20;;
62153;SDS011;48140;45.486;9.226;2022-07-21T05:49:23;5.05;;;2.67;;
62153;SDS011;48140;45.486;9.226;2022-07-21T05:51:49;7.72;;;3.10;;
62153;SDS011;48140;45.486;9.226;2022-07-21T05:54:15;5.28;;;3.40;;
62153;SDS011;48140;45.486;9.226;2022-07-21T05:56:41;8.32;;;3.25;;
62153;SDS011;48140;45.486;9.226;2022-07-21T05:59:06;7.10;;;3.42;;
62153;SDS011;48140;45.486;9.226;2022-07-21T06:01:32;7.30;;;2.85;;
62153;SDS011;48140;45.486;9.226;2022-07-21T06:03:58;5.85;;;3.40;;
62153;SDS011;48140;45.486;9.226;2022-07-21T06:06:24;9.38;;;3.17;;
62153;SDS011;48140;45.486;9.226;2022-07-21T06:08:49;9.35;;;3.08;;
62153;SDS011;48140;45.486;9.226;2022-07-21T06:11:17;8.35;;;3.30;;
62153;SDS011;48140;45.486;9.226;2022-07-21T06:13:44;13.75;;;3.20;;
62153;SDS011;48140;45.486;9.226;2022-07-21T06:16:10;12.18;;;3.13;;
62153;SDS011;48140;45.486;9.226;2022-07-21T06:18:37;5.60;;;3.25;;
62153;SDS011;48140;45.486;9.226;2022-07-21T06:21:02;8.30;;;3.10;;
62153;SDS011;48140;45.486;9.226;2022-07-21T06:23:29;5.68;;;3.00;;
62153;SDS011;48140;45.486;9.226;2022-07-21T06:25:55;6.85;;;3.10;;
62153;SDS011;48140;45.486;9.226;2022-07-21T06:28:21;10.55;;;3.30;;
62153;SDS011;48140;45.486;9.226;2022-07-21T06:30:47;6.10;;;3.00;;
62153;SDS011;48140;45.486;9.226;2022-07-21T06:33:14;6.40;;;3.00;;
62153;SDS011;48140;45.486;9.226;2022-07-21T06:35:40;4.93;;;2.55;;
62153;SDS011;48140;45.486;9.226;2022-07-21T06:38:05;5.03;;;2.80;;
62153;SDS011;48140;45.486;9.226;2022-07-21T06:40:31;5.78;;;2.80;;
62153;SDS011;48140;45.486;9.226;2022-07-21T06:42:57;5.90;;;3.17;;
62153;SDS011;48140;45.486;9.226;2022-07-21T06:45:23;9.18;;;2.95;;
62153;SDS011;48140;45.486;9.226;2022-07-21T06:47:49;9.57;;;3.30;;
62153;SDS011;48140;45.486;9.226;2022-07-21T06:50:14;6.88;;;3.47;;
62153;SDS011;48140;45.486;9.226;2022-07-21T06:52:41;8.25;;;3.33;;
62153;SDS011;48140;45.486;9.226;2022-07-21T06:55:07;9.40;;;3.45;;
62153;SDS011;48140;45.486;9.226;2022-07-21T06:57:34;5.05;;;2.88;;
62153;SDS011;48140;45.486;9.226;2022-07-21T07:00:00;4.28;;;2.40;;
62153;SDS011;48140;45.486;9.226;2022-07-21T07:02:28;4.80;;;2.53;;
62153;SDS011;48140;45.486;9.226;2022-07-21T07:04:54;6.18;;;2.60;;
62153;SDS011;48140;45.486;9.226;2022-07-21T07:07:20;5.25;;;2.47;;
62153;SDS011;48140;45.486;9.226;2022-07-21T07:09:46;4.68;;;2.58;;
62153;SDS011;48140;45.486;9.226;2022-07-21T07:12:11;8.57;;;2.58;;
62153;SDS011;48140;45.486;9.226;2022-07-21T07:14:37;4.38;;;2.20;;
62153;SDS011;48140;45.486;9.226;2022-07-21T07:17:03;5.82;;;2.22;;
62153;SDS011;48140;45.486;9.226;2022-07-21T07:19:29;4.05;;;2.08;;
62153;SDS011;48140;45.486;9.226;2022-07-21T07:21:55;3.50;;;2.13;;
62153;SDS011;48140;45.486;9.226;2022-07-21T07:24:21;4.13;;;2.20;;
62153;SDS011;48140;45.486;9.226;2022-07-21T07:26:47;4.10;;;2.30;;
62153;SDS011;48140;45.486;9.226;2022-07-21T07:29:13;5.35;;;2.25;;
62153;SDS011;48140;45.486;9.226;2022-07-21T07:31:39;4.55;;;2.20;;
62153;SDS011;48140;45.486;9.226;2022-07-21T07:34:05;5.25;;;2.33;;
62153;SDS011;48140;45.486;9.226;2022-07-21T07:36:30;7.20;;;2.30;;
62153;SDS011;48140;45.486;9.226;2022-07-21T07:38:57;6.45;;;2.20;;
62153;SDS011;48140;45.486;9.226;2022-07-21T07:41:24;4.18;;;2.10;;
62153;SDS011;48140;45.486;9.226;2022-07-21T07:43:51;3.78;;;2.20;;
62153;SDS011;48140;45.486;9.226;2022-07-21T07:46:18;4.07;;;2.20;;
62153;SDS011;48140;45.486;9.226;2022-07-21T07:48:44;5.40;;;2.20;;
62153;SDS011;48140;45.486;9.226;2022-07-21T07:51:10;7.15;;;2.67;;
62153;SDS011;48140;45.486;9.226;2022-07-21T07:53:37;4.38;;;2.53;;
62153;SDS011;48140;45.486;9.226;2022-07-21T07:56:03;4.55;;;2.40;;
62153;SDS011;48140;45.486;9.226;2022-07-21T07:58:30;7.55;;;2.50;;
62153;SDS011;48140;45.486;9.226;2022-07-21T08:00:55;7.93;;;2.72;;
62153;SDS011;48140;45.486;9.226;2022-07-21T08:03:21;7.05;;;2.42;;
62153;SDS011;48140;45.486;9.226;2022-07-21T08:05:48;7.53;;;2.65;;
62153;SDS011;48140;45.486;9.226;2022-07-21T08:08:14;8.68;;;2.70;;
62153;SDS011;48140;45.486;9.226;2022-07-21T08:10:41;7.45;;;2.50;;
62153;SDS011;48140;45.486;9.226;2022-07-21T08:13:09;4.10;;;2.00;;
62153;SDS011;48140;45.486;9.226;2022-07-21T08:15:36;4.75;;;2.50;;
62153;SDS011;48140;45.486;9.226;2022-07-21T08:18:02;3.33;;;2.38;;
62153;SDS011;48140;45.486;9.226;2022-07-21T08:20:28;5.35;;;2.30;;
62153;SDS011;48140;45.486;9.226;2022-07-21T08:22:54;6.20;;;2.40;;
62153;SDS011;48140;45.486;9.226;2022-07-21T08:25:20;6.80;;;2.67;;
62153;SDS011;48140;45.486;9.226;2022-07-21T08:27:45;5.05;;;2.47;;
62153;SDS011;48140;45.486;9.226;2022-07-21T08:30:11;5.47;;;2.90;;
62153;SDS011;48140;45.486;9.226;2022-07-21T08:32:37;5.30;;;2.90;;
62153;SDS011;48140;45.486;9.226;2022-07-21T08:35:03;10.48;;;3.25;;
62153;SDS011;48140;45.486;9.226;2022-07-21T08:37:33;8.30;;;3.05;;
62153;SDS011;48140;45.486;9.226;2022-07-21T08:40:06;6.13;;;2.97;;
62153;SDS011;48140;45.486;9.226;2022-07-21T08:42:33;5.95;;;2.85;;
62153;SDS011;48140;45.486;9.226;2022-07-21T08:45:00;4.40;;;2.78;;
62153;SDS011;48140;45.486;9.226;2022-07-21T08:47:26;5.72;;;2.72;;
62153;SDS011;48140;45.486;9.226;2022-07-21T08:49:52;5.13;;;2.30;;
62153;SDS011;48140;45.486;9.226;2022-07-21T08:52:19;4.45;;;2.40;;
62153;SDS011;48140;45.486;9.226;2022-07-21T08:54:45;3.65;;;2.20;;
62153;SDS011;48140;45.486;9.226;2022-07-21T08:57:11;4.90;;;2.30;;
62153;SDS011;48140;45.486;9.226;2022-07-21T08:59:37;8.07;;;2.40;;
62153;SDS011;48140;45.486;9.226;2022-07-21T09:02:02;6.57;;;2.47;;
62153;SDS011;48140;45.486;9.226;2022-07-21T09:04:30;3.85;;;2.40;;
62153;SDS011;48140;45.486;9.226;2022-07-21T09:09:24;3.83;;;2.10;;
62153;SDS011;48140;45.486;9.226;2022-07-21T09:11:52;2.92;;;2.20;;
62153;SDS011;48140;45.486;9.226;2022-07-21T09:14:20;4.18;;;2.45;;
62153;SDS011;48140;45.486;9.226;2022-07-21T09:16:48;7.30;;;2.63;;
62153;SDS011;48140;45.486;9.226;2022-07-21T09:19:20;4.28;;;2.42;;
62153;SDS011;48140;45.486;9.226;2022-07-21T09:21:50;4.82;;;2.58;;
62153;SDS011;48140;45.486;9.226;2022-07-21T09:24:25;4.80;;;2.45;;
62153;SDS011;48140;45.486;9.226;2022-07-21T09:32:15;3.88;;;2.58;;
62153;SDS011;48140;45.486;9.226;2022-07-21T09:34:43;5.97;;;2.40;;
62153;SDS011;48140;45.486;9.226;2022-07-21T09:37:09;4.70;;;2.25;;
62153;SDS011;48140;45.486;9.226;2022-07-21T09:39:45;6.53;;;2.40;;
62153;SDS011;48140;45.486;9.226;2022-07-21T09:44:54;12.80;;;2.55;;
62153;SDS011;48140;45.486;9.226;2022-07-21T09:47:22;7.22;;;2.28;;
62153;SDS011;48140;45.486;9.226;2022-07-21T09:49:49;5.38;;;2.88;;
62153;SDS011;48140;45.486;9.226;2022-07-21T09:52:31;6.60;;;2.90;;
62153;SDS011;48140;45.486;9.226;2022-07-21T09:55:09;5.97;;;3.08;;
62153;SDS011;48140;45.486;9.226;2022-07-21T09:57:36;5.15;;;2.88;;
62153;SDS011;48140;45.486;9.226;2022-07-21T10:00:03;6.45;;;3.08;;
62153;SDS011;48140;45.486;9.226;2022-07-21T10:02:31;5.45;;;2.80;;
62153;SDS011;48140;45.486;9.226;2022-07-21T10:05:05;8.27;;;3.05;;
62153;SDS011;48140;45.486;9.226;2022-07-21T10:07:33;7.60;;;3.45;;
62153;SDS011;48140;45.486;9.226;2022-07-21T10:10:01;5.45;;;3.00;;
62153;SDS011;48140;45.486;9.226;2022-07-21T10:12:27;7.53;;;2.80;;
62153;SDS011;48140;45.486;9.226;2022-07-21T10:14:53;6.53;;;3.25;;
62153;SDS011;48140;45.486;9.226;2022-07-21T10:17:20;7.72;;;3.25;;
62153;SDS011;48140;45.486;9.226;2022-07-21T10:20:08;4.95;;;3.25;;
62153;SDS011;48140;45.486;9.226;2022-07-21T10:25:47;6.05;;;3.13;;
62153;SDS011;48140;45.486;9.226;2022-07-21T10:30:48;9.80;;;3.58;;
62153;SDS011;48140;45.486;9.226;2022-07-21T10:33:22;4.63;;;2.85;;
62153;SDS011;48140;45.486;9.226;2022-07-21T10:36:07;8.13;;;3.00;;
62153;SDS011;48140;45.486;9.226;2022-07-21T10:38:34;8.38;;;3.15;;
62153;SDS011;48140;45.486;9.226;2022-07-21T10:41:03;5.75;;;2.80;;
62153;SDS011;48140;45.486;9.226;2022-07-21T10:45:56;5.32;;;2.67;;
62153;SDS011;48140;45.486;9.226;2022-07-21T10:51:07;5.05;;;2.80;;
62153;SDS011;48140;45.486;9.226;2022-07-21T10:53:35;4.72;;;2.90;;
62153;SDS011;48140;45.486;9.226;2022-07-21T10:56:01;7.55;;;2.97;;
62153;SDS011;48140;45.486;9.226;2022-07-21T11:00:57;5.43;;;3.00;;
62153;SDS011;48140;45.486;9.226;2022-07-21T11:03:26;6.03;;;2.72;;
62153;SDS011;48140;45.486;9.226;2022-07-21T11:08:35;3.85;;;2.70;;
62153;SDS011;48140;45.486;9.226;2022-07-21T11:21:55;8.60;;;2.92;;
62153;SDS011;48140;45.486;9.226;2022-07-21T11:24:23;4.78;;;3.20;;
62153;SDS011;48140;45.486;9.226;2022-07-21T11:27:00;7.47;;;3.05;;
62153;SDS011;48140;45.486;9.226;2022-07-21T11:29:28;5.38;;;3.10;;
62153;SDS011;48140;45.486;9.226;2022-07-21T11:31:55;7.45;;;3.30;;
62153;SDS011;48140;45.486;9.226;2022-07-21T11:34:22;4.38;;;2.90;;
62153;SDS011;48140;45.486;9.226;2022-07-21T11:36:57;10.70;;;3.25;;
62153;SDS011;48140;45.486;9.226;2022-07-21T11:39:24;4.28;;;3.00;;
62153;SDS011;48140;45.486;9.226;2022-07-21T11:41:50;5.85;;;3.30;;
62153;SDS011;48140;45.486;9.226;2022-07-21T11:44:22;4.32;;;3.05;;
62153;SDS011;48140;45.486;9.226;2022-07-21T11:46:51;5.55;;;3.35;;
62153;SDS011;48140;45.486;9.226;2022-07-21T11:49:18;8.60;;;3.25;;
62153;SDS011;48140;45.486;9.226;2022-07-21T11:51:49;8.30;;;3.30;;
62153;SDS011;48140;45.486;9.226;2022-07-21T11:54:23;5.18;;;3.47;;
62153;SDS011;48140;45.486;9.226;2022-07-21T11:56:56;4.50;;;3.25;;
62153;SDS011;48140;45.486;9.226;2022-07-21T11:59:22;10.65;;;3.22;;
62153;SDS011;48140;45.486;9.226;2022-07-21T12:01:50;5.80;;;3.20;;
62153;SDS011;48140;45.486;9.226;2022-07-21T12:04:27;6.32;;;3.30;;
62153;SDS011;48140;45.486;9.226;2022-07-21T12:06:56;5.50;;;3.38;;
62153;SDS011;48140;45.486;9.226;2022-07-21T12:09:23;4.13;;;3.03;;
62153;SDS011;48140;45.486;9.226;2022-07-21T12:11:49;4.60;;;3.30;;
62153;SDS011;48140;45.486;9.226;2022-07-21T12:14:15;4.97;;;2.90;;
62153;SDS011;48140;45.486;9.226;2022-07-21T12:16:51;5.82;;;3.30;;
62153;SDS011;48140;45.486;9.226;2022-07-21T12:19:18;6.05;;;3.38;;
62153;SDS011;48140;45.486;9.226;2022-07-21T12:21:52;7.20;;;3.63;;
62153;SDS011;48140;45.486;9.226;2022-07-21T12:24:18;5.90;;;3.38;;
62153;SDS011;48140;45.486;9.226;2022-07-21T12:26:45;5.18;;;2.83;;
62153;SDS011;48140;45.486;9.226;2022-07-21T12:29:27;5.40;;;3.00;;
62153;SDS011;48140;45.486;9.226;2022-07-21T12:31:54;7.78;;;3.28;;
62153;SDS011;48140;45.486;9.226;2022-07-21T12:34:19;5.03;;;2.88;;
62153;SDS011;48140;45.486;9.226;2022-07-21T12:36:46;4.43;;;2.95;;
62153;SDS011;48140;45.486;9.226;2022-07-21T12:39:59;6.05;;;3.00;;
62153;SDS011;48140;45.486;9.226;2022-07-21T12:42:32;6.43;;;2.85;;
62153;SDS011;48140;45.486;9.226;2022-07-21T12:48:10;7.30;;;3.05;;
62153;SDS011;48140;45.486;9.226;2022-07-21T12:50:38;5.88;;;3.20;;
62153;SDS011;48140;45.486;9.226;2022-07-21T12:53:13;5.70;;;3.20;;
62153;SDS011;48140;45.486;9.226;2022-07-21T12:55:39;5.15;;;3.03;;
62153;SDS011;48140;45.486;9.226;2022-07-21T12:58:05;4.47;;;3.20;;
62153;SDS011;48140;45.486;9.226;2022-07-21T13:00:31;12.13;;;3.10;;
62153;SDS011;48140;45.486;9.226;2022-07-21T13:02:57;5.90;;;3.33;;
62153;SDS011;48140;45.486;9.226;2022-07-21T13:05:24;4.95;;;3.17;;
62153;SDS011;48140;45.486;9.226;2022-07-21T13:07:51;5.75;;;2.90;;
62153;SDS011;48140;45.486;9.226;2022-07-21T13:10:17;4.88;;;2.95;;
62153;SDS011;48140;45.486;9.226;2022-07-21T13:12:43;4.75;;;3.15;;
62153;SDS011;48140;45.486;9.226;2022-07-21T13:15:09;6.35;;;3.20;;
62153;SDS011;48140;45.486;9.226;2022-07-21T13:17:35;7.05;;;3.10;;
62153;SDS011;48140;45.486;9.226;2022-07-21T13:20:01;4.65;;;3.10;;
62153;SDS011;48140;45.486;9.226;2022-07-21T13:22:28;4.57;;;3.25;;
62153;SDS011;48140;45.486;9.226;2022-07-21T13:24:54;4.55;;;3.20;;
62153;SDS011;48140;45.486;9.226;2022-07-21T13:27:20;9.65;;;3.20;;
62153;SDS011;48140;45.486;9.226;2022-07-21T13:29:46;5.35;;;3.35;;
62153;SDS011;48140;45.486;9.226;2022-07-21T13:32:11;5.32;;;3.25;;
62153;SDS011;48140;45.486;9.226;2022-07-21T13:34:37;7.43;;;3.40;;
62153;SDS011;48140;45.486;9.226;2022-07-21T13:37:03;7.85;;;3.22;;
62153;SDS011;48140;45.486;9.226;2022-07-21T13:39:28;4.80;;;3.03;;
62153;SDS011;48140;45.486;9.226;2022-07-21T13:41:56;7.85;;;3.33;;
62153;SDS011;48140;45.486;9.226;2022-07-21T13:44:22;4.32;;;2.90;;
62153;SDS011;48140;45.486;9.226;2022-07-21T13:46:48;7.97;;;3.35;;
62153;SDS011;48140;45.486;9.226;2022-07-21T13:49:14;5.15;;;2.90;;
62153;SDS011;48140;45.486;9.226;2022-07-21T13:51:39;7.60;;;3.30;;
62153;SDS011;48140;45.486;9.226;2022-07-21T13:54:05;5.07;;;2.80;;
62153;SDS011;48140;45.486;9.226;2022-07-21T13:56:31;8.80;;;3.33;;
62153;SDS011;48140;45.486;9.226;2022-07-21T13:58:56;8.25;;;3.20;;
62153;SDS011;48140;45.486;9.226;2022-07-21T14:01:22;5.82;;;3.10;;
62153;SDS011;48140;45.486;9.226;2022-07-21T14:03:48;5.45;;;2.92;;
62153;SDS011;48140;45.486;9.226;2022-07-21T14:06:15;10.38;;;3.05;;
62153;SDS011;48140;45.486;9.226;2022-07-21T14:08:41;6.40;;;3.25;;
62153;SDS011;48140;45.486;9.226;2022-07-21T14:11:08;7.32;;;3.25;;
62153;SDS011;48140;45.486;9.226;2022-07-21T14:13:34;6.90;;;3.45;;
62153;SDS011;48140;45.486;9.226;2022-07-21T14:16:00;4.32;;;3.00;;
62153;SDS011;48140;45.486;9.226;2022-07-21T14:18:27;5.03;;;3.45;;
62153;SDS011;48140;45.486;9.226;2022-07-21T14:20:53;6.43;;;3.10;;
62153;SDS011;48140;45.486;9.226;2022-07-21T14:23:19;5.45;;;3.28;;
62153;SDS011;48140;45.486;9.226;2022-07-21T14:25:46;4.63;;;2.97;;
62153;SDS011;48140;45.486;9.226;2022-07-21T14:28:12;6.18;;;3.60;;
62153;SDS011;48140;45.486;9.226;2022-07-21T14:30:38;4.25;;;3.03;;
62153;SDS011;48140;45.486;9.226;2022-07-21T14:33:03;4.43;;;2.92;;
62153;SDS011;48140;45.486;9.226;2022-07-21T14:35:29;7.45;;;3.00;;
62153;SDS011;48140;45.486;9.226;2022-07-21T14:37:55;4.88;;;3.28;;
62153;SDS011;48140;45.486;9.226;2022-07-21T14:40:21;7.28;;;3.20;;
62153;SDS011;48140;45.486;9.226;2022-07-21T14:42:47;5.30;;;3.50;;
62153;SDS011;48140;45.486;9.226;2022-07-21T14:45:14;5.20;;;3.03;;
62153;SDS011;48140;45.486;9.226;2022-07-21T14:47:40;8.63;;;3.35;;
62153;SDS011;48140;45.486;9.226;2022-07-21T14:50:06;6.75;;;3.90;;
62153;SDS011;48140;45.486;9.226;2022-07-21T14:52:32;7.05;;;3.47;;
62153;SDS011;48140;45.486;9.226;2022-07-21T14:54:58;5.18;;;3.35;;
62153;SDS011;48140;45.486;9.226;2022-07-21T14:57:23;5.03;;;3.30;;
62153;SDS011;48140;45.486;9.226;2022-07-21T14:59:49;4.97;;;3.40;;
62153;SDS011;48140;45.486;9.226;2022-07-21T15:02:15;6.00;;;3.47;;
62153;SDS011;48140;45.486;9.226;2022-07-21T15:04:41;7.55;;;3.50;;
62153;SDS011;48140;45.486;9.226;2022-07-21T15:07:07;5.00;;;3.42;;
62153;SDS011;48140;45.486;9.226;2022-07-21T15:09:33;4.43;;;3.22;;
62153;SDS011;48140;45.486;9.226;2022-07-21T15:11:59;6.18;;;3.63;;
62153;SDS011;48140;45.486;9.226;2022-07-21T15:14:25;4.93;;;3.38;;
62153;SDS011;48140;45.486;9.226;2022-07-21T15:16:51;5.25;;;3.50;;
62153;SDS011;48140;45.486;9.226;2022-07-21T15:19:16;5.95;;;3.53;;
62153;SDS011;48140;45.486;9.226;2022-07-21T15:21:42;5.10;;;3.42;;
62153;SDS011;48140;45.486;9.226;2022-07-21T15:24:09;7.57;;;3.83;;
62153;SDS011;48140;45.486;9.226;2022-07-21T15:26:35;5.88;;;3.60;;
62153;SDS011;48140;45.486;9.226;2022-07-21T15:29:00;4.47;;;3.55;;
62153;SDS011;48140;45.486;9.226;2022-07-21T15:31:29;7.68;;;3.55;;
62153;SDS011;48140;45.486;9.226;2022-07-21T15:33:56;8.23;;;3.50;;
62153;SDS011;48140;45.486;9.226;2022-07-21T15:36:22;6.65;;;3.83;;
62153;SDS011;48140;45.486;9.226;2022-07-21T15:38:48;6.20;;;3.55;;
62153;SDS011;48140;45.486;9.226;2022-07-21T15:41:13;7.45;;;3.60;;
62153;SDS011;48140;45.486;9.226;2022-07-21T15:43:40;7.97;;;4.15;;
62153;SDS011;48140;45.486;9.226;2022-07-21T15:46:05;8.70;;;3.95;;
62153;SDS011;48140;45.486;9.226;2022-07-21T15:48:31;6.05;;;3.70;;
62153;SDS011;48140;45.486;9.226;2022-07-21T15:50:57;6.68;;;3.97;;
62153;SDS011;48140;45.486;9.226;2022-07-21T15:53:22;7.05;;;3.67;;
62153;SDS011;48140;45.486;9.226;2022-07-21T15:55:48;6.70;;;3.63;;
62153;SDS011;48140;45.486;9.226;2022-07-21T15:58:13;5.85;;;3.60;;
62153;SDS011;48140;45.486;9.226;2022-07-21T16:00:39;4.80;;;3.70;;
62153;SDS011;48140;45.486;9.226;2022-07-21T16:03:05;7.53;;;3.50;;
62153;SDS011;48140;45.486;9.226;2022-07-21T16:05:30;8.45;;;3.83;;
62153;SDS011;48140;45.486;9.226;2022-07-21T16:07:58;7.10;;;3.80;;
62153;SDS011;48140;45.486;9.226;2022-07-21T16:10:24;5.80;;;3.72;;
62153;SDS011;48140;45.486;9.226;2022-07-21T16:12:50;8.00;;;3.65;;
62153;SDS011;48140;45.486;9.226;2022-07-21T16:15:17;9.35;;;3.65;;
62153;SDS011;48140;45.486;9.226;2022-07-21T16:17:44;7.60;;;3.63;;
62153;SDS011;48140;45.486;9.226;2022-07-21T16:20:10;5.60;;;3.97;;
62153;SDS011;48140;45.486;9.226;2022-07-21T16:22:37;5.30;;;3.53;;
62153;SDS011;48140;45.486;9.226;2022-07-21T16:25:04;6.65;;;4.88;;
62153;SDS011;48140;45.486;9.226;2022-07-21T16:27:30;8.95;;;4.25;;
62153;SDS011;48140;45.486;9.226;2022-07-21T16:29:56;5.80;;;3.80;;